createdAt,value
2018-11-14T00:00:33.690Z,24.97
2018-11-14T00:03:02.493Z,20.50
2018-11-14T00:05:30.975Z,23.57
2018-11-14T00:07:58.896Z,24.77
2018-11-14T00:10:28.174Z,26.70
2018-11-14T00:12:56.178Z,20.37
2018-11-14T00:15:24.910Z,21.77
2018-11-14T00:17:53.139Z,26.67
2018-11-14T00:20:20.904Z,28.43
2018-11-14T00:22:49.399Z,25.60
2018-11-14T00:25:17.185Z,28.73
2018-11-14T00:27:45.064Z,23.63
2018-11-14T00:30:29.651Z,26.77
2018-11-14T00:32:57.408Z,28.53
2018-11-14T00:35:25.489Z,29.67
2018-11-14T00:37:53.248Z,26.73
2018-11-14T00:40:21.117Z,27.30
2018-11-14T00:42:49.162Z,27.70
2018-11-14T00:45:18.059Z,34.53
2018-11-14T00:47:47.523Z,28.00
2018-11-14T00:50:16.441Z,30.33
2018-11-14T00:52:44.987Z,28.77
2018-11-14T00:55:14.282Z,29.20
2018-11-14T00:57:43.083Z,35.23
2018-11-14T01:00:13.515Z,32.23
2018-11-14T01:02:41.637Z,34.77
2018-11-14T01:05:10.534Z,26.03
2018-11-14T01:07:38.260Z,33.70
2018-11-14T01:10:07.903Z,29.43
2018-11-14T01:12:35.945Z,33.97
2018-11-14T01:15:03.840Z,30.53
2018-11-14T01:17:31.806Z,33.20
2018-11-14T01:19:59.587Z,33.10
2018-11-14T01:22:27.574Z,31.50
2018-11-14T01:24:55.296Z,33.63
2018-11-14T01:27:23.321Z,34.73
2018-11-14T01:29:50.785Z,33.30
2018-11-14T01:32:18.596Z,35.47
2018-11-14T01:34:46.399Z,38.37
2018-11-14T01:37:14.360Z,32.37
2018-11-14T01:39:42.264Z,31.47
2018-11-14T01:42:13.748Z,35.40
2018-11-14T01:44:41.453Z,42.60
2018-11-14T01:47:09.330Z,39.40
2018-11-14T01:49:37.049Z,38.50
2018-11-14T01:52:05.133Z,40.93
2018-11-14T01:54:32.876Z,35.73
2018-11-14T01:57:00.864Z,36.77
2018-11-14T01:59:28.614Z,37.20
2018-11-14T02:01:56.317Z,42.10
2018-11-14T02:04:24.149Z,40.53
2018-11-14T02:06:51.910Z,40.33
2018-11-14T02:09:19.679Z,34.37
2018-11-14T02:11:47.448Z,42.87
2018-11-14T02:14:15.317Z,43.83
2018-11-14T02:16:43.055Z,41.80
2018-11-14T02:19:10.818Z,42.17
2018-11-14T02:21:38.532Z,47.93
2018-11-14T02:24:06.293Z,36.80
2018-11-14T02:26:36.096Z,49.67
2018-11-14T02:29:04.298Z,47.63
2018-11-14T02:31:32.221Z,49.47
2018-11-14T02:34:00.107Z,47.80
2018-11-14T02:36:28.008Z,42.77
2018-11-14T02:38:57.168Z,47.87
2018-11-14T02:41:26.583Z,42.77
2018-11-14T02:43:54.285Z,50.57
2018-11-14T02:46:21.897Z,42.47
2018-11-14T02:48:49.625Z,48.43
2018-11-14T02:51:23.290Z,48.03
2018-11-14T02:53:51.159Z,46.70
2018-11-14T02:56:19.777Z,45.90
2018-11-14T02:58:47.625Z,42.10
2018-11-14T03:01:17.735Z,55.33
2018-11-14T03:03:45.609Z,47.83
2018-11-14T03:06:13.525Z,49.50
2018-11-14T03:08:41.374Z,55.87
2018-11-14T03:11:10.422Z,58.17
2018-11-14T03:13:38.225Z,49.80
2018-11-14T03:16:06.300Z,47.10
2018-11-14T03:18:34.918Z,46.87
2018-11-14T03:21:02.910Z,58.00
2018-11-14T03:23:30.895Z,51.73
2018-11-14T03:25:58.859Z,53.30
2018-11-14T03:28:27.185Z,56.43
2018-11-14T03:30:55.540Z,53.10
2018-11-14T03:33:23.687Z,58.37
2018-11-14T03:35:57.262Z,52.17
2018-11-14T03:38:25.056Z,58.00
2018-11-14T03:40:52.981Z,58.83
2018-11-14T03:43:21.468Z,52.57
2018-11-14T03:45:49.301Z,58.07
2018-11-14T03:48:17.022Z,64.50
2018-11-14T03:50:44.824Z,66.20
2018-11-14T03:53:12.578Z,61.60
2018-11-14T03:55:40.436Z,68.50
2018-11-14T03:58:08.193Z,60.83
2018-11-14T04:00:35.926Z,63.80
2018-11-14T04:03:03.799Z,76.27
2018-11-14T04:05:31.678Z,65.20
2018-11-14T04:07:59.989Z,76.73
2018-11-14T04:10:27.808Z,73.03
2018-11-14T04:12:55.524Z,71.17
2018-11-14T04:15:24.132Z,70.83
2018-11-14T04:17:55.081Z,68.57
2018-11-14T04:20:22.749Z,75.23
2018-11-14T04:22:50.847Z,78.13
2018-11-14T04:25:20.084Z,75.73
2018-11-14T04:27:48.479Z,75.27
2018-11-14T04:30:20.696Z,74.17
2018-11-14T04:32:49.503Z,85.47
2018-11-14T04:35:19.788Z,85.17
2018-11-14T04:37:47.841Z,86.30
2018-11-14T04:40:18.555Z,94.50
2018-11-14T04:42:46.613Z,103.60
2018-11-14T04:45:17.627Z,93.53
2018-11-14T04:47:45.809Z,103.37
2018-11-14T04:50:16.584Z,114.40
2018-11-14T04:52:45.347Z,109.27
2018-11-14T04:55:14.633Z,121.37
2018-11-14T04:57:42.883Z,115.53
2018-11-14T05:00:13.068Z,125.27
2018-11-14T05:02:42.541Z,125.87
2018-11-14T05:05:12.792Z,137.73
2018-11-14T05:07:40.826Z,135.83
2018-11-14T05:10:13.096Z,133.17
2018-11-14T05:29:27.569Z,144.07
2018-11-14T05:31:55.685Z,160.50
2018-11-14T05:34:23.811Z,160.90
2018-11-14T05:36:51.887Z,143.80
2018-11-14T05:39:20.113Z,172.57
2018-11-14T05:41:48.505Z,167.93
2018-11-14T05:44:16.835Z,170.73
2018-11-14T05:46:44.921Z,175.73
2018-11-14T05:49:13.406Z,172.30
2018-11-14T05:51:41.643Z,168.03
2018-11-14T05:54:09.555Z,188.97
2018-11-14T05:56:37.673Z,172.27
2018-11-14T05:59:06.067Z,197.03
2018-11-14T06:01:34.259Z,165.80
2018-11-14T06:04:02.692Z,165.57
2018-11-14T06:06:31.071Z,172.03
2018-11-14T06:09:00.035Z,248.83
2018-11-14T06:11:27.869Z,199.50
2018-11-14T06:13:55.835Z,198.93
2018-11-14T06:16:24.081Z,217.43
2018-11-14T06:18:52.268Z,324.03
2018-11-14T06:21:20.611Z,223.67
2018-11-14T06:23:49.689Z,197.60
2018-11-14T06:26:17.988Z,220.07
2018-11-14T06:28:46.042Z,192.77
2018-11-14T06:31:14.144Z,191.27
2018-11-14T06:33:42.510Z,215.83
2018-11-14T06:36:11.785Z,345.93
2018-11-14T06:38:41.049Z,239.30
2018-11-14T06:41:09.978Z,270.97
2018-11-14T06:43:46.474Z,178.37
2018-11-14T06:46:17.801Z,307.50
2018-11-14T06:48:45.936Z,207.93
2018-11-14T08:04:19.834Z,130.37
2018-11-14T08:06:47.910Z,157.30
2018-11-14T08:09:16.105Z,139.80
2018-11-14T08:11:44.837Z,136.80
2018-11-14T08:14:13.422Z,170.83
2018-11-14T08:16:41.908Z,131.73
2018-11-14T08:19:09.962Z,122.20
2018-11-14T08:21:55.609Z,158.43
2018-11-14T08:24:23.953Z,145.00
2018-11-14T08:26:52.538Z,114.87
2018-11-14T08:29:21.706Z,104.57
2018-11-14T08:31:50.428Z,91.33
2018-11-14T08:34:19.662Z,97.90
2018-11-14T08:36:50.370Z,138.83
2018-11-14T08:39:21.728Z,100.97
2018-11-14T08:41:49.994Z,127.23
2018-11-14T08:44:19.973Z,147.73
2018-11-14T08:46:48.404Z,106.10
2018-11-14T08:49:17.146Z,154.67
2018-11-14T08:51:45.865Z,122.00
2018-11-14T08:54:14.452Z,105.53
2018-11-14T08:56:42.649Z,191.43
2018-11-14T08:59:10.621Z,118.53
2018-11-14T09:01:38.757Z,144.97
2018-11-14T09:04:07.150Z,132.23
2018-11-14T09:06:36.290Z,117.17
2018-11-14T09:09:07.282Z,186.27
2018-11-14T09:11:35.389Z,140.00
2018-11-14T09:14:04.757Z,130.03
2018-11-14T09:16:33.316Z,150.90
2018-11-14T09:19:01.615Z,150.57
2018-11-14T09:21:29.928Z,158.13
2018-11-14T09:23:58.109Z,159.13
2018-11-14T09:26:26.546Z,130.60
2018-11-14T09:28:54.851Z,189.20
2018-11-14T09:31:24.193Z,139.47
2018-11-14T09:33:52.639Z,205.47
2018-11-14T09:36:21.158Z,215.90
2018-11-14T09:38:49.314Z,137.43
2018-11-14T09:41:17.812Z,140.17
2018-11-14T09:43:46.081Z,138.10
2018-11-14T09:46:14.371Z,201.57
2018-11-14T09:48:43.339Z,109.97
2018-11-14T09:51:11.714Z,111.53
2018-11-14T09:53:40.688Z,130.13
2018-11-14T09:56:09.212Z,107.33
2018-11-14T09:58:41.291Z,147.57
2018-11-14T10:01:10.446Z,114.17
2018-11-14T10:03:40.093Z,118.67
2018-11-14T10:06:08.541Z,124.43
2018-11-14T10:08:47.033Z,109.40
2018-11-14T10:11:16.019Z,156.83
2018-11-14T10:13:44.225Z,111.87
2018-11-14T10:16:13.026Z,116.70
2018-11-14T10:18:41.157Z,103.37
2018-11-14T10:21:09.122Z,106.77
2018-11-14T10:23:37.301Z,101.40
2018-11-14T10:26:05.403Z,100.07
2018-11-14T10:28:33.694Z,106.67
2018-11-14T10:31:02.740Z,102.00
2018-11-14T10:33:31.009Z,102.73
2018-11-14T10:35:59.288Z,100.00
2018-11-14T10:38:30.229Z,103.20
2018-11-14T10:40:58.661Z,102.90
2018-11-14T10:43:28.417Z,106.83
2018-11-14T10:45:57.961Z,107.47
2018-11-14T10:48:26.311Z,106.30
2018-11-14T10:50:54.823Z,101.10
2018-11-14T10:53:23.241Z,94.17
2018-11-14T10:55:51.887Z,88.57
2018-11-14T10:58:21.625Z,90.73
2018-11-14T11:00:58.467Z,84.83
2018-11-14T11:03:40.673Z,85.10
2018-11-14T11:06:14.633Z,78.20
2018-11-14T11:08:48.537Z,80.37
2018-11-14T11:11:17.589Z,81.90
2018-11-14T11:14:16.337Z,70.37
2018-11-14T11:16:50.115Z,64.97
2018-11-14T11:19:21.064Z,64.43
2018-11-14T11:21:50.092Z,76.53
2018-11-14T11:24:20.728Z,62.10
2018-11-14T11:26:49.128Z,71.30
2018-11-14T11:29:21.598Z,62.70
2018-11-14T11:31:49.890Z,67.47
2018-11-14T11:34:17.998Z,54.80
2018-11-14T11:36:49.175Z,55.47
2018-11-14T11:39:27.339Z,53.63
2018-11-14T11:41:57.086Z,52.10
2018-11-14T11:44:25.364Z,57.10
2018-11-14T11:46:54.214Z,49.87
2018-11-14T11:49:22.639Z,47.47
2018-11-14T11:51:51.129Z,44.73
2018-11-14T11:54:19.618Z,41.30
2018-11-14T11:56:54.848Z,41.37
2018-11-14T11:59:23.321Z,36.83
2018-11-14T12:01:51.946Z,39.13
2018-11-14T12:04:20.221Z,37.23
2018-11-14T12:06:48.804Z,33.57
2018-11-14T12:09:17.203Z,36.03
2018-11-14T12:11:45.638Z,32.20
2018-11-14T12:14:13.917Z,38.87
2018-11-14T12:16:42.789Z,27.00
2018-11-14T12:19:11.411Z,30.60
2018-11-14T12:21:39.763Z,33.20
2018-11-14T12:24:08.492Z,34.10
2018-11-14T12:26:38.113Z,37.37
2018-11-14T12:29:13.590Z,26.30
2018-11-14T12:31:42.785Z,34.97
2018-11-14T12:34:13.500Z,31.20
2018-11-14T21:16:02.319Z,11.67
2018-11-14T21:18:30.321Z,22.03
2018-11-14T21:20:58.401Z,19.53
2018-11-14T21:23:27.984Z,17.23
2018-11-14T21:25:55.883Z,17.77
2018-11-14T21:28:23.701Z,17.77
2018-11-14T21:30:51.598Z,20.83
2018-11-14T21:33:19.521Z,19.67
2018-11-14T21:35:47.418Z,14.03
2018-11-14T21:38:15.348Z,12.37
2018-11-14T21:41:13.466Z,16.83
2018-11-14T21:43:47.659Z,19.33
2018-11-14T21:46:15.772Z,19.20
2018-11-14T21:48:43.814Z,15.63
